Wetterstation CH-4312 Magden
Wetterdaten: aktuell Montag, 25.06.2018 04:00
Datum Zeit Temp. I. Temp. A. Solkit WP Vorl Feuchte I. Feuchte A. Luftdruck Regen Wind Richtung Richtung Sonnenschein UV Solar Taupunkt Windchill Windben
25.06.2018 04:00 22,4 C 12,8 C 21,1 C 18,3 C 52 % 89 % 1018,9 hPa 0,0 mm 0,0 km/h W-NW 287 0 min 0,0 UV-I 0 W/m 11,0 C 12,8 C 0,0 km/h
25.06.2018 03:00 22,7 C 13,1 C 21,7 C 18,3 C 52 % 87 % 1019,1 hPa 0,0 mm 0,0 km/h W-NW 287 0 min 0,0 UV-I 0 W/m 11,0 C 13,1 C 0,0 km/h
25.06.2018 02:00 22,8 C 14,5 C 22,2 C 18,3 C 52 % 83 % 1019,1 hPa 0,0 mm 0,0 km/h W-NW 287 0 min 0,0 UV-I 0 W/m 11,6 C 14,5 C 0,0 km/h
25.06.2018 00:50 23,1 C 15,8 C 22,8 C 18,3 C 51 % 76 % 1019,1 hPa 0,0 mm 0,0 km/h W-NW 287 0 min 0,0 UV-I 0 W/m 11,6 C 15,8 C 0,0 km/h
24.06.2018 23:50 23,2 C 16,3 C 22,8 C 18,3 C 50 % 72 % 1019,0 hPa 0,0 mm 0,0 km/h W-NW 287 0 min 0,0 UV-I 0 W/m 11,2 C 16,3 C 0,0 km/h
24.06.2018 22:50 23,2 C 16,8 C 23,3 C 17,8 C 49 % 69 % 1018,8 hPa 0,0 mm 0,0 km/h W-NW 287 0 min 0,0 UV-I 0 W/m 11,1 C 16,8 C 0,0 km/h
24.06.2018 21:40 22,9 C 17,9 C 24,4 C 17,8 C 49 % 63 % 1018,6 hPa 0,0 mm 0,0 km/h W-NW 287 0 min 0,0 UV-I 0 W/m 10,8 C 17,9 C 0,0 km/h
24.06.2018 20:40 23,4 C 19,6 C 27,2 C 17,8 C 48 % 56 % 1018,0 hPa 0,0 mm 0,0 km/h W-NW 287 0 min 0,0 UV-I 26 W/m 10,6 C 19,6 C 0,0 km/h
24.06.2018 19:40 23,9 C 21,9 C 31,1 C 17,8 C 47 % 48 % 1017,9 hPa 0,0 mm 0,0 km/h NW 306 40 min 1,0 UV-I 104 W/m 10,4 C 21,9 C 1,6 km/h
24.06.2018 18:40 23,8 C 22,3 C 43,3 C 17,8 C 49 % 51 % 1017,6 hPa 0,0 mm 0,0 km/h W-NW 285 60 min 2,1 UV-I 241 W/m 11,7 C 22,3 C 0,0 km/h
24.06.2018 17:40 23,6 C 21,6 C 55,0 C 17,2 C 48 % 50 % 1017,9 hPa 0,0 mm 0,2 km/h W-NW 292 60 min 1,8 UV-I 322 W/m 10,7 C 21,6 C 11,3 km/h
24.06.2018 16:40 23,5 C 21,8 C 73,3 C 17,2 C 49 % 52 % 1018,2 hPa 0,0 mm 0,0 km/h W 275 60 min 3,3 UV-I 638 W/m 11,5 C 21,8 C 0,0 km/h
24.06.2018 15:40 23,4 C 21,4 C 73,3 C 17,2 C 50 % 55 % 1018,5 hPa 0,0 mm 0,5 km/h W 279 60 min 2,7 UV-I 288 W/m 12,0 C 21,4 C 14,5 km/h
24.06.2018 14:40 23,2 C 21,6 C 73,3 C 17,2 C 51 % 55 % 1018,7 hPa 0,0 mm 0,0 km/h W-NW 288 60 min 5,7 UV-I 995 W/m 12,2 C 21,6 C 0,0 km/h
24.06.2018 13:40 23,2 C 20,1 C 68,9 C 17,2 C 51 % 58 % 1019,3 hPa 0,0 mm 0,0 km/h W-NW 291 60 min 4,4 UV-I 605 W/m 11,6 C 20,1 C 0,0 km/h
24.06.2018 12:40 23,7 C 17,9 C 40,0 C 17,2 C 56 % 68 % 1019,8 hPa 0,0 mm 0,0 km/h W-NW 291 60 min 2,9 UV-I 464 W/m 11,9 C 17,9 C 0,0 km/h
24.06.2018 11:40 23,7 C 17,7 C 22,2 C 17,2 C 55 % 67 % 1020,1 hPa 0,0 mm 0,0 km/h W-NW 300 60 min 2,6 UV-I 462 W/m 11,5 C 17,7 C 0,0 km/h
24.06.2018 10:40 23,6 C 16,6 C 20,0 C 17,2 C 55 % 72 % 1019,9 hPa 0,0 mm 0,0 km/h W-NW 298 60 min 2,0 UV-I 322 W/m 11,5 C 16,6 C 0,0 km/h
24.06.2018 09:40 23,6 C 14,7 C 20,0 C 17,2 C 55 % 77 % 1020,5 hPa 0,0 mm 0,0 km/h W-NW 295 60 min 1,2 UV-I 302 W/m 10,7 C 14,7 C 0,0 km/h
24.06.2018 08:40 23,6 C 13,3 C 20,0 C 17,2 C 55 % 83 % 1020,6 hPa 0,0 mm 0,0 km/h W-NW 297 40 min 0,0 UV-I 193 W/m 10,5 C 13,3 C 0,0 km/h
24.06.2018 07:40 23,5 C 11,2 C 20,0 C 17,2 C 55 % 91 % 1020,8 hPa 0,0 mm 0,0 km/h W-NW 297 0 min 0,0 UV-I 114 W/m 9,8 C 11,2 C 0,0 km/h
24.06.2018 06:40 23,5 C 9,4 C 20,0 C 17,2 C 55 % 91 % 1020,6 hPa 0,0 mm 0,0 km/h W-NW 296 0 min 0,0 UV-I 53 W/m 8,0 C 9,4 C 0,0 km/h
24.06.2018 05:40 23,5 C 8,4 C 20,0 C 17,2 C 55 % 91 % 1020,8 hPa 0,0 mm 0,0 km/h W-NW 297 0 min 0,0 UV-I 5 W/m 7,0 C 8,4 C 0,0 km/h
24.06.2018 05:00 23,4 C 8,6 C 20,0 C 17,2 C 56 % 90 % 1020,7 hPa 0,0 mm 0,0 km/h W-NW 296 0 min 0,0 UV-I 0 W/m 7,1 C 8,6 C 0,0 km/h
_ Min-Zeit 04:00 05:30 05:00 05:00 19:50 19:30 18:50 - 05:00 - - - - - 05:30 05:30 05:00
Minimum _ 22,4 C 8,3 C 20,0 C 17,2 C 46 % 47 % 1017,5 hPa - 0,0 km/h - - - - - 6,9 C 8,3 C 0,0 km/h
_ Max-Zeit 19:20 19:10 14:20 23:20 05:00 08:10 05:40 05:00 17:00 - - 08:10 14:10 14:50 14:50 19:10 15:00
Maximum _ 24,0 C 22,8 C 73,3 C 18,3 C 56 % 92 % 1020,8 hPa 0,0 mm 1,0 km/h
W
- - 10 min 5,8 UV-I 1099 W/m 12,9 C 22,8 C 16,1 km/h
W-NW
Durchschnitt _ 23,4 C 16,2 C 33,6 C 17,5 C 52 % 71 % 1019,3 hPa #0,0 mm 0,1 km/h N - #0 min. 0,0 UV-I 0 W/m 10,6 C 16,2 C 1,5 km/h
Wetterstation CH-4312 Magden